Sumner, Missouri
Current Conditions -  °F | °C
As of 6:55 AM on Wednesday 22 Oct 2014 (Local Time) from KIRK Reporting Station
Clear Clear  
Wind Chill: 34°   Ceiling: Unl
Heat Index: 40°   Visibility: 10mi
Dew Point: 39°   Wind: 8mph
Humidity: 97%   Direction: 110°ESE
Pressure: 30.27"   Gusts: NA
Location:  39.65°N, 93.24°W
Report Text: KIRK 221155Z AUTO 11007KT 10SM CLR 04/04 A3027 RMK AO2 SLP257 T00440039 10078 20044 53013
Loading
Personal Weather Stations






























Interactive Weather Map
Tropical Storm Tracking
New forecast layout! Learn more

10-Day Weather Forecast

Advertisements
Track Severe Weather on mobile